createdAt,value
2018-02-15T00:01:34.233Z,62.50
2018-02-15T00:04:02.585Z,62.91
2018-02-15T00:06:30.900Z,62.69
2018-02-15T00:08:59.224Z,62.60
2018-02-15T00:11:28.450Z,62.96
2018-02-15T00:13:56.811Z,63.07
2018-02-15T00:16:25.910Z,63.58
2018-02-15T00:18:54.264Z,63.39
2018-02-15T00:21:24.080Z,62.92
2018-02-15T00:23:52.420Z,63.03
2018-02-15T00:26:21.546Z,62.87
2018-02-15T00:28:49.905Z,62.85
2018-02-15T00:31:18.244Z,62.67
2018-02-15T00:33:46.677Z,62.56
2018-02-15T00:36:15.012Z,62.51
2018-02-15T00:38:44.093Z,62.09
2018-02-15T00:41:12.436Z,62.16
2018-02-15T00:43:40.734Z,62.75
2018-02-15T00:46:09.095Z,62.83
2018-02-15T00:48:37.709Z,62.92
2018-02-15T00:51:06.073Z,62.91
2018-02-15T00:53:34.443Z,63.80
2018-02-15T00:56:03.179Z,63.53
2018-02-15T00:58:31.493Z,63.22
2018-02-15T01:00:59.794Z,63.36
2018-02-15T01:03:28.121Z,63.34
2018-02-15T01:05:57.194Z,63.67
2018-02-15T01:08:25.527Z,63.03
2018-02-15T01:10:53.870Z,62.88
2018-02-15T01:13:22.975Z,63.15
2018-02-15T01:15:51.290Z,63.13
2018-02-15T01:18:19.941Z,62.60
2018-02-15T01:20:49.066Z,62.79
2018-02-15T01:23:17.410Z,63.20
2018-02-15T01:25:47.073Z,63.51
2018-02-15T01:28:15.402Z,62.87
2018-02-15T01:30:44.514Z,62.22
2018-02-15T01:33:12.985Z,62.08
2018-02-15T01:35:42.050Z,62.06
2018-02-15T01:38:10.348Z,61.56
2018-02-15T01:40:39.763Z,61.87
2018-02-15T01:43:08.105Z,61.82
2018-02-15T01:45:36.413Z,61.93
2018-02-15T01:48:05.711Z,61.76
2018-02-15T01:50:34.871Z,61.88
2018-02-15T01:53:03.175Z,61.45
2018-02-15T01:55:32.299Z,60.99
2018-02-15T01:58:00.612Z,60.90
2018-02-15T02:00:29.028Z,60.48
2018-02-15T02:02:58.648Z,60.38
2018-02-15T02:05:27.754Z,60.69
2018-02-15T02:07:56.823Z,60.29
2018-02-15T02:10:25.138Z,60.07
2018-02-15T02:12:53.490Z,59.92
2018-02-15T02:15:21.815Z,60.48
2018-02-15T02:17:50.153Z,60.08
2018-02-15T02:20:19.798Z,59.54
2018-02-15T02:22:48.128Z,59.73
2018-02-15T02:25:16.846Z,59.90
2018-02-15T02:27:45.183Z,59.62
2018-02-15T02:30:13.502Z,59.39
2018-02-15T02:32:41.837Z,59.40
2018-02-15T02:35:10.146Z,59.07
2018-02-15T02:37:39.227Z,58.34
2018-02-15T02:40:08.882Z,59.27
2018-02-15T02:42:37.344Z,59.08
2018-02-15T02:45:05.666Z,59.25
2018-02-15T02:47:34.682Z,59.83
2018-02-15T02:50:03.166Z,59.89
2018-02-15T02:52:31.496Z,59.69
2018-02-15T02:55:00.124Z,60.00
2018-02-15T02:57:28.639Z,59.74
2018-02-15T02:59:56.965Z,59.30
2018-02-15T03:02:25.345Z,59.12
2018-02-15T03:04:53.685Z,59.20
2018-02-15T03:07:22.036Z,58.63
2018-02-15T03:09:51.528Z,58.78
2018-02-15T03:12:19.858Z,58.32
2018-02-15T03:14:48.179Z,58.24
2018-02-15T03:17:16.774Z,58.06
2018-02-15T03:19:45.060Z,58.06
2018-02-15T03:22:15.973Z,58.05
2018-02-15T03:24:44.338Z,58.25
2018-02-15T03:27:12.676Z,59.06
2018-02-15T03:29:40.987Z,58.97
2018-02-15T03:32:09.838Z,58.85
2018-02-15T03:34:38.988Z,59.04
2018-02-15T03:37:07.384Z,59.23
2018-02-15T03:39:35.834Z,59.50
2018-02-15T03:42:04.250Z,59.09
2018-02-15T03:44:32.657Z,58.17
2018-02-15T03:47:01.871Z,57.66
2018-02-15T03:49:30.265Z,57.61
2018-02-15T03:51:58.671Z,57.64
2018-02-15T03:54:28.059Z,57.53
2018-02-15T03:56:56.404Z,57.87
2018-02-15T03:59:24.950Z,57.79
2018-02-15T04:01:53.401Z,57.88
2018-02-15T04:04:21.706Z,57.85
2018-02-15T04:06:50.226Z,58.32
2018-02-15T04:09:19.508Z,57.55
2018-02-15T04:11:47.974Z,58.86
2018-02-15T04:14:16.351Z,59.54
2018-02-15T04:16:45.516Z,59.58
2018-02-15T04:19:13.884Z,60.03
2018-02-15T04:21:42.279Z,59.96
2018-02-15T04:24:10.792Z,59.67
2018-02-15T04:26:39.157Z,59.47
2018-02-15T04:29:07.650Z,59.92
2018-02-15T04:31:36.279Z,59.66
2018-02-15T04:34:04.717Z,60.25
2018-02-15T04:36:33.199Z,59.88
2018-02-15T04:39:02.198Z,60.57
2018-02-15T04:41:30.676Z,60.25
2018-02-15T04:43:59.044Z,60.77
2018-02-15T04:46:27.537Z,60.93
2018-02-15T04:48:56.021Z,61.30
2018-02-15T04:51:25.178Z,61.51
2018-02-15T04:53:53.664Z,61.34
2018-02-15T04:56:21.990Z,60.40
2018-02-15T04:58:50.418Z,60.46
2018-02-15T05:01:19.574Z,60.58
2018-02-15T05:03:48.748Z,60.50
2018-02-15T05:06:17.204Z,60.41
2018-02-15T05:08:45.924Z,60.65
2018-02-15T05:11:14.405Z,61.39
2018-02-15T05:13:42.784Z,61.40
2018-02-15T05:16:11.246Z,61.45
2018-02-15T05:21:07.425Z,61.24
2018-02-15T05:23:37.227Z,61.01
2018-02-15T05:26:05.616Z,61.76
2018-02-15T05:28:34.766Z,62.22
2018-02-15T05:31:03.178Z,61.33
2018-02-15T05:33:31.557Z,61.45
2018-02-15T05:36:00.040Z,61.68
2018-02-15T05:38:28.498Z,61.65
2018-02-15T05:40:56.911Z,63.49
2018-02-15T05:43:25.262Z,63.56
2018-02-15T05:45:54.178Z,63.94
2018-02-15T05:48:22.552Z,63.77
2018-02-15T05:50:51.032Z,63.74
2018-02-15T05:53:19.506Z,64.00
2018-02-15T05:55:47.916Z,64.39
2018-02-15T05:58:17.096Z,64.35
2018-02-15T06:00:45.558Z,63.60
2018-02-15T06:03:13.955Z,64.19
2018-02-15T06:05:42.343Z,64.45
2018-02-15T06:08:11.147Z,64.57
2018-02-15T06:10:39.605Z,64.62
2018-02-15T06:13:07.981Z,64.29
2018-02-15T06:15:36.321Z,64.51
2018-02-15T06:18:04.688Z,63.97
2018-02-15T06:20:33.225Z,64.79
2018-02-15T06:23:02.188Z,64.20
2018-02-15T06:25:30.603Z,64.72
2018-02-15T06:27:58.978Z,64.57
2018-02-15T06:30:28.042Z,64.22
2018-02-15T06:32:56.342Z,63.80
2018-02-15T06:35:24.661Z,63.87
2018-02-15T06:37:53.017Z,64.07
2018-02-15T06:40:21.481Z,64.13
2018-02-15T06:42:49.777Z,64.46
2018-02-15T06:45:18.139Z,64.81
2018-02-15T06:47:46.457Z,64.34
2018-02-15T06:50:14.965Z,64.77
2018-02-15T06:52:43.796Z,65.23
2018-02-15T06:55:12.089Z,65.54
2018-02-15T06:57:41.051Z,65.05
2018-02-15T07:00:09.653Z,65.05
2018-02-15T07:02:37.975Z,64.83
2018-02-15T07:05:06.367Z,64.69
2018-02-15T07:07:34.727Z,65.50
2018-02-15T07:10:03.055Z,65.22
2018-02-15T07:12:31.402Z,65.08
2018-02-15T07:15:00.137Z,64.16
2018-02-15T07:17:28.491Z,63.60
2018-02-15T07:19:56.955Z,63.24
2018-02-15T07:22:25.307Z,63.12
2018-02-15T07:24:53.629Z,63.57
2018-02-15T07:27:21.953Z,62.60
2018-02-15T07:29:51.084Z,62.75
2018-02-15T07:32:19.380Z,61.24
2018-02-15T07:37:15.886Z,61.27
2018-02-15T07:39:44.289Z,61.06
2018-02-15T07:42:12.665Z,60.58
2018-02-15T07:44:41.029Z,59.58
2018-02-15T07:47:10.183Z,58.18
2018-02-15T07:49:38.498Z,57.94
2018-02-15T07:52:07.599Z,58.17
2018-02-15T07:54:35.914Z,59.13
2018-02-15T07:57:04.261Z,58.79
2018-02-15T07:59:32.813Z,59.39
2018-02-15T08:02:01.166Z,60.24
2018-02-15T08:04:30.262Z,59.05
2018-02-15T08:06:58.636Z,59.39
2018-02-15T08:09:26.971Z,59.45
2018-02-15T08:11:55.309Z,59.51
2018-02-15T08:14:23.904Z,59.23
2018-02-15T08:16:52.244Z,59.58
2018-02-15T08:19:20.625Z,59.11
2018-02-15T08:21:49.669Z,59.05
2018-02-15T08:24:18.019Z,59.42
2018-02-15T08:26:46.775Z,59.36
2018-02-15T08:29:15.135Z,59.02
2018-02-15T08:31:44.272Z,59.22
2018-02-15T08:34:12.584Z,60.03
2018-02-15T08:36:40.920Z,59.52
2018-02-15T08:39:09.247Z,59.54
2018-02-15T08:41:38.328Z,59.86
2018-02-15T08:44:07.178Z,59.58
2018-02-15T08:46:35.542Z,59.14
2018-02-15T08:49:03.870Z,59.37
2018-02-15T08:51:32.598Z,59.23
2018-02-15T08:54:01.695Z,59.20
2018-02-15T08:56:30.033Z,58.80
2018-02-15T08:58:58.400Z,58.69
2018-02-15T09:01:26.742Z,58.27
2018-02-15T09:03:55.137Z,58.39
2018-02-15T09:06:23.924Z,58.78
2018-02-15T09:08:52.283Z,58.76
2018-02-15T09:11:20.615Z,58.85
2018-02-15T09:13:49.009Z,58.53
2018-02-15T09:16:17.371Z,58.21
2018-02-15T09:18:45.761Z,57.94
2018-02-15T09:21:14.124Z,57.68
2018-02-15T09:23:42.471Z,58.40
2018-02-15T09:26:10.795Z,57.71
2018-02-15T09:28:40.031Z,56.77
2018-02-15T09:31:08.357Z,56.67
2018-02-15T09:33:36.705Z,57.10
2018-02-15T09:36:05.060Z,57.22
2018-02-15T09:38:34.164Z,57.32
2018-02-15T09:41:02.507Z,56.89
2018-02-15T09:43:30.896Z,57.38
2018-02-15T09:45:59.262Z,58.21
2018-02-15T09:48:27.631Z,58.98
2018-02-15T09:50:56.490Z,58.46
2018-02-15T09:53:24.823Z,57.78
2018-02-15T09:55:53.166Z,58.15
2018-02-15T09:58:21.522Z,58.16
2018-02-15T10:00:49.857Z,58.67
2018-02-15T10:03:18.389Z,58.89
2018-02-15T10:05:47.237Z,58.34
2018-02-15T10:08:15.590Z,57.94
2018-02-15T10:10:43.921Z,57.28
2018-02-15T10:13:12.879Z,57.85
2018-02-15T10:15:41.217Z,57.83
2018-02-15T10:18:09.540Z,57.54
2018-02-15T10:20:37.921Z,58.12
2018-02-15T10:23:06.254Z,58.26
2018-02-15T10:25:34.582Z,58.39
2018-02-15T10:28:03.766Z,57.65
2018-02-15T10:30:32.121Z,57.65
2018-02-15T10:33:00.455Z,57.66
2018-02-15T10:35:28.979Z,56.83
2018-02-15T10:37:57.283Z,56.90
2018-02-15T10:40:25.634Z,56.96
2018-02-15T10:42:54.263Z,56.98
2018-02-15T10:45:22.602Z,56.69
2018-02-15T10:47:50.916Z,57.16
2018-02-15T10:50:19.266Z,57.39
2018-02-15T10:52:47.596Z,57.12
2018-02-15T10:55:15.895Z,56.49
2018-02-15T10:57:44.761Z,57.48
2018-02-15T11:00:13.118Z,57.27
2018-02-15T11:02:42.284Z,56.87
2018-02-15T11:05:16.047Z,56.55
2018-02-15T11:07:44.384Z,56.91
2018-02-15T11:10:13.696Z,57.83
2018-02-15T11:12:42.851Z,58.98
2018-02-15T11:15:11.167Z,59.57
2018-02-15T11:17:40.339Z,58.59
2018-02-15T11:20:09.282Z,57.56
2018-02-15T11:22:37.633Z,57.80
2018-02-15T11:25:06.025Z,58.48
2018-02-15T11:27:34.380Z,58.71
2018-02-15T11:30:02.713Z,59.41
2018-02-15T11:32:31.052Z,61.01
2018-02-15T11:34:59.498Z,62.60
2018-02-15T11:37:27.826Z,62.84
2018-02-15T11:39:56.149Z,63.51
2018-02-15T11:42:24.994Z,63.55
2018-02-15T11:44:54.134Z,63.93
2018-02-15T11:47:22.495Z,63.75
2018-02-15T11:49:50.865Z,65.08
2018-02-15T11:52:20.000Z,65.20
2018-02-15T11:54:48.338Z,64.33
2018-02-15T11:57:17.723Z,65.02
2018-02-15T11:59:46.072Z,66.32
2018-02-15T12:02:14.423Z,66.51
2018-02-15T12:04:43.130Z,66.45
2018-02-15T12:07:11.443Z,65.73
2018-02-15T12:09:39.808Z,66.17
2018-02-15T12:12:08.162Z,65.42
2018-02-15T12:14:36.648Z,65.51
2018-02-15T12:17:04.958Z,66.69
2018-02-15T12:19:33.422Z,66.37
2018-02-15T12:22:01.770Z,67.45
2018-02-15T12:24:30.149Z,66.76
2018-02-15T12:26:59.139Z,67.59
2018-02-15T12:29:27.471Z,67.52
2018-02-15T12:31:55.814Z,68.67
2018-02-15T12:34:24.568Z,70.22
2018-02-15T12:36:52.897Z,71.09
2018-02-15T12:39:21.287Z,70.84
2018-02-15T12:41:49.668Z,71.11
2018-02-15T12:44:17.993Z,72.38
2018-02-15T12:46:46.359Z,71.14
2018-02-15T12:49:15.022Z,72.20
2018-02-15T12:51:43.348Z,72.08
2018-02-15T12:54:11.715Z,72.86
2018-02-15T12:56:40.104Z,72.78
2018-02-15T12:59:09.251Z,73.15
2018-02-15T13:01:38.371Z,73.52
2018-02-15T13:04:07.520Z,73.78
2018-02-15T13:06:35.867Z,73.57
2018-02-15T13:09:04.237Z,74.78
2018-02-15T13:11:33.009Z,74.59
2018-02-15T13:14:01.523Z,73.56
2018-02-15T13:16:47.577Z,72.40
2018-02-15T13:19:34.172Z,72.87
2018-02-15T13:22:04.160Z,72.23
2018-02-15T13:24:32.496Z,71.10
2018-02-15T13:27:01.608Z,71.26
2018-02-15T13:29:30.274Z,71.19
2018-02-15T13:31:58.685Z,71.57
2018-02-15T13:34:27.045Z,71.95
2018-02-15T13:36:55.412Z,72.17
2018-02-15T13:39:24.567Z,72.42
2018-02-15T13:41:52.914Z,72.41
2018-02-15T13:44:21.837Z,72.85
2018-02-15T13:46:50.171Z,72.91
2018-02-15T13:49:18.500Z,73.22
2018-02-15T13:51:47.408Z,73.72
2018-02-15T13:54:15.743Z,74.07
2018-02-15T13:56:44.114Z,73.08
2018-02-15T13:59:12.485Z,73.80
2018-02-15T14:01:40.806Z,73.53
2018-02-15T14:04:09.895Z,72.98
2018-02-15T14:06:39.073Z,73.24
2018-02-15T14:09:07.419Z,74.23
2018-02-15T14:11:35.773Z,75.13
2018-02-15T14:14:04.446Z,75.05
2018-02-15T14:16:32.793Z,74.61
2018-02-15T14:19:01.135Z,74.51
2018-02-15T14:21:30.495Z,75.19
2018-02-15T14:23:58.854Z,74.35
2018-02-15T14:26:27.172Z,74.25
2018-02-15T14:28:55.549Z,74.17
2018-02-15T14:31:23.869Z,74.86
2018-02-15T14:33:52.423Z,74.88
2018-02-15T14:36:21.687Z,75.51
2018-02-15T14:38:50.041Z,76.08
2018-02-15T14:41:18.343Z,77.18
2018-02-15T14:43:46.711Z,76.78
2018-02-15T14:46:15.092Z,77.48
2018-02-15T14:48:43.415Z,77.26
2018-02-15T14:51:12.517Z,77.73
2018-02-15T14:53:41.615Z,78.14
2018-02-15T14:56:10.781Z,78.64
2018-02-15T14:58:39.660Z,78.92
2018-02-15T15:01:07.992Z,79.54
2018-02-15T15:03:36.336Z,78.35
2018-02-15T15:06:04.698Z,78.37
2018-02-15T15:08:33.056Z,79.06
2018-02-15T15:11:01.405Z,79.89
2018-02-15T15:13:30.516Z,80.00
2018-02-15T15:15:58.892Z,79.31
2018-02-15T15:18:27.238Z,79.05
2018-02-15T15:20:57.179Z,79.78
2018-02-15T15:23:26.402Z,80.47
2018-02-15T15:25:54.774Z,80.07
2018-02-15T15:28:23.945Z,80.45
2018-02-15T15:30:53.116Z,80.12
2018-02-15T15:33:21.456Z,79.80
2018-02-15T15:35:50.198Z,79.11
2018-02-15T15:38:18.569Z,78.79
2018-02-15T15:40:46.955Z,79.35
2018-02-15T15:43:15.639Z,79.88
2018-02-15T15:45:43.977Z,80.41
2018-02-15T15:48:12.332Z,80.22
2018-02-15T15:50:40.731Z,79.56
2018-02-15T15:53:09.113Z,79.81
2018-02-15T15:55:37.464Z,80.01
2018-02-15T15:58:05.875Z,79.74
2018-02-15T16:00:34.178Z,79.75
2018-02-15T16:03:02.525Z,79.48
2018-02-15T16:05:31.371Z,79.57
2018-02-15T16:07:59.704Z,78.73
2018-02-15T16:10:28.036Z,79.15
2018-02-15T16:12:57.414Z,78.56
2018-02-15T16:15:25.750Z,78.26
2018-02-15T16:17:54.049Z,79.91
2018-02-15T16:20:23.249Z,79.17
2018-02-15T16:22:51.572Z,78.54
2018-02-15T16:25:19.958Z,78.60
2018-02-15T16:27:49.606Z,78.32
2018-02-15T16:30:18.719Z,78.37
2018-02-15T16:32:47.032Z,79.07
2018-02-15T16:35:16.149Z,79.12
2018-02-15T16:37:44.521Z,78.79
2018-02-15T16:40:12.868Z,79.29
2018-02-15T16:42:41.224Z,80.01
2018-02-15T16:45:09.560Z,80.45
2018-02-15T16:47:37.887Z,80.03
2018-02-15T16:50:07.024Z,80.04
2018-02-15T16:52:36.446Z,79.78
2018-02-15T16:55:04.753Z,79.75
2018-02-15T16:57:33.118Z,79.01
2018-02-15T17:00:01.502Z,78.20
2018-02-15T17:02:29.903Z,79.06
2018-02-15T17:04:58.286Z,78.70
2018-02-15T17:07:27.441Z,78.40
2018-02-15T17:09:55.804Z,79.06
2018-02-15T17:12:25.352Z,79.10
2018-02-15T17:14:53.888Z,79.34
2018-02-15T17:17:22.984Z,79.81
2018-02-15T17:19:52.110Z,80.70
2018-02-15T17:22:20.441Z,80.78
2018-02-15T17:24:48.786Z,81.00
2018-02-15T17:27:17.639Z,81.69
2018-02-15T17:29:46.158Z,81.45
2018-02-15T17:32:14.473Z,80.75
2018-02-15T17:34:43.873Z,80.60
2018-02-15T17:37:12.219Z,80.28
2018-02-15T17:39:40.583Z,79.99
2018-02-15T17:42:08.940Z,79.94
2018-02-15T17:44:37.265Z,80.37
2018-02-15T17:47:05.562Z,80.60
2018-02-15T17:49:33.979Z,80.71
2018-02-15T17:52:02.301Z,81.12
2018-02-15T17:54:30.657Z,81.83
2018-02-15T17:56:59.041Z,82.87
2018-02-15T17:59:27.361Z,82.91
2018-02-15T18:01:55.680Z,82.33
2018-02-15T18:04:24.063Z,82.25
2018-02-15T18:06:52.389Z,82.29
2018-02-15T18:09:20.796Z,82.11
2018-02-15T18:11:49.944Z,82.20
2018-02-15T18:14:18.313Z,82.55
2018-02-15T18:16:46.664Z,82.69
2018-02-15T18:19:15.343Z,82.37
2018-02-15T18:21:43.682Z,82.80
2018-02-15T18:24:12.004Z,83.66
2018-02-15T18:26:40.345Z,83.27
2018-02-15T18:29:08.646Z,83.39
2018-02-15T18:31:36.972Z,83.05
2018-02-15T18:34:06.100Z,82.50
2018-02-15T18:36:34.445Z,81.94
2018-02-15T18:39:02.858Z,83.18
2018-02-15T18:41:32.258Z,83.00
2018-02-15T18:44:00.593Z,82.96
2018-02-15T18:46:28.909Z,82.51
2018-02-15T18:48:57.247Z,82.65
2018-02-15T18:51:25.565Z,82.44
2018-02-15T18:53:53.935Z,82.54
2018-02-15T18:56:22.314Z,83.66
2018-02-15T18:58:50.825Z,83.77
2018-02-15T19:01:19.957Z,82.88
2018-02-15T19:03:48.615Z,82.36
2018-02-15T19:06:16.961Z,81.37
2018-02-15T19:08:45.287Z,82.07
2018-02-15T19:11:13.685Z,83.16
2018-02-15T19:13:42.035Z,82.18
2018-02-15T19:16:11.117Z,82.23
2018-02-15T19:18:39.478Z,83.15
2018-02-15T19:21:07.882Z,83.66
2018-02-15T19:23:36.963Z,81.91
2018-02-15T19:26:06.004Z,82.74
2018-02-15T19:28:34.314Z,82.25
2018-02-15T19:31:02.644Z,81.43
2018-02-15T19:33:31.834Z,81.99
2018-02-15T19:36:00.966Z,82.21
2018-02-15T19:38:29.295Z,82.56
2018-02-15T19:40:57.664Z,82.59
2018-02-15T19:43:26.000Z,81.98
2018-02-15T19:45:54.382Z,82.56
2018-02-15T19:48:22.862Z,83.02
2018-02-15T19:50:51.221Z,83.03
2018-02-15T19:53:19.583Z,83.69
2018-02-15T19:55:48.700Z,84.43
2018-02-15T19:58:17.031Z,84.95
2018-02-15T20:00:45.496Z,84.69
2018-02-15T20:03:13.849Z,84.57
2018-02-15T20:05:42.186Z,83.73
2018-02-15T20:08:10.532Z,83.71
2018-02-15T20:10:39.274Z,83.50
2018-02-15T20:13:08.395Z,83.94
2018-02-15T20:15:42.184Z,84.13
2018-02-15T20:18:10.529Z,84.62
2018-02-15T20:20:38.841Z,84.91
2018-02-15T20:23:07.216Z,85.03
2018-02-15T20:25:35.535Z,84.54
2018-02-15T20:28:17.048Z,84.45
2018-02-15T20:30:45.491Z,85.08
2018-02-15T20:33:13.820Z,84.58
2018-02-15T20:35:42.228Z,84.52
2018-02-15T20:38:16.072Z,85.20
2018-02-15T20:40:44.469Z,86.19
2018-02-15T20:43:13.630Z,85.09
2018-02-15T20:45:41.974Z,85.28
2018-02-15T20:48:10.457Z,84.82
2018-02-15T20:50:44.243Z,84.83
2018-02-15T20:53:18.159Z,84.59
2018-02-15T20:55:47.292Z,84.17
2018-02-15T20:58:15.644Z,83.47
2018-02-15T21:00:44.017Z,82.58
2018-02-15T21:03:13.100Z,82.82
2018-02-15T21:05:41.469Z,82.88
2018-02-15T21:08:10.098Z,82.14
2018-02-15T21:10:38.419Z,81.72
2018-02-15T21:13:06.760Z,80.99
2018-02-15T21:15:35.121Z,80.16
2018-02-15T21:18:04.208Z,79.68
2018-02-15T21:20:32.557Z,80.20
2018-02-15T21:23:00.907Z,79.95
2018-02-15T21:25:29.241Z,79.63
2018-02-15T21:27:57.653Z,79.99
2018-02-15T21:30:26.268Z,80.50
2018-02-15T21:32:54.881Z,79.65
2018-02-15T21:35:23.226Z,79.57
2018-02-15T21:37:51.575Z,79.08
2018-02-15T21:40:19.965Z,79.85
2018-02-15T21:42:48.309Z,80.71
2018-02-15T21:45:16.672Z,80.32
2018-02-15T21:47:45.065Z,79.46
2018-02-15T21:50:13.404Z,79.01
2018-02-15T21:52:42.122Z,78.69
2018-02-15T21:55:10.460Z,78.09
2018-02-15T21:57:38.794Z,78.08
2018-02-15T22:00:07.967Z,78.62
2018-02-15T22:02:36.291Z,78.75
2018-02-15T22:05:04.618Z,78.25
2018-02-15T22:07:32.976Z,77.91
2018-02-15T22:10:01.297Z,78.25
2018-02-15T22:12:29.615Z,78.73
2018-02-15T22:14:58.163Z,79.34
2018-02-15T22:17:26.530Z,79.16
2018-02-15T22:19:54.865Z,79.08
2018-02-15T22:22:23.237Z,79.33
2018-02-15T22:24:51.581Z,78.53
2018-02-15T22:27:20.699Z,78.08
2018-02-15T22:29:49.083Z,77.73
2018-02-15T22:32:17.412Z,77.98
2018-02-15T22:34:45.993Z,78.47
2018-02-15T22:37:14.414Z,78.98
2018-02-15T22:39:43.540Z,78.69
2018-02-15T22:42:11.846Z,78.06
2018-02-15T22:44:40.209Z,77.33
2018-02-15T22:47:08.516Z,77.33
2018-02-15T22:49:36.844Z,78.46
2018-02-15T22:52:05.177Z,78.57
2018-02-15T22:54:33.508Z,78.68
2018-02-15T22:57:01.841Z,80.88
2018-02-15T22:59:30.681Z,81.74
2018-02-15T23:01:59.004Z,81.06
2018-02-15T23:04:28.128Z,80.70
2018-02-15T23:06:57.268Z,81.08
2018-02-15T23:09:25.593Z,81.18
2018-02-15T23:11:54.707Z,81.50
2018-02-15T23:14:23.835Z,82.05
2018-02-15T23:16:52.157Z,82.01
2018-02-15T23:19:20.465Z,81.44
2018-02-15T23:21:49.840Z,80.77
2018-02-15T23:24:18.168Z,81.56
2018-02-15T23:26:46.519Z,81.33
2018-02-15T23:29:14.874Z,81.54
2018-02-15T23:31:43.209Z,81.93
2018-02-15T23:34:11.553Z,81.35
2018-02-15T23:36:40.679Z,81.93
2018-02-15T23:39:08.989Z,81.65
2018-02-15T23:41:37.305Z,81.10
2018-02-15T23:44:05.991Z,81.16
2018-02-15T23:46:34.290Z,81.25
2018-02-15T23:49:02.615Z,81.47
2018-02-15T23:51:31.741Z,81.28
2018-02-15T23:54:00.884Z,81.60
2018-02-15T23:56:29.220Z,81.74
2018-02-15T23:58:57.548Z,82.06
